createdAt,value
2018-01-17T00:00:40.755Z,65.76
2018-01-17T00:03:11.084Z,66.13
2018-01-17T00:05:41.680Z,66.75
2018-01-17T00:08:14.004Z,66.36
2018-01-17T00:10:44.516Z,66.69
2018-01-17T00:13:14.965Z,66.65
2018-01-17T00:15:46.286Z,66.71
2018-01-17T00:18:17.556Z,66.92
2018-01-17T00:20:48.957Z,66.62
2018-01-17T00:23:19.773Z,66.65
2018-01-17T00:25:52.075Z,66.91
2018-01-17T00:31:23.366Z,69.18
2018-01-17T00:33:55.241Z,69.67
2018-01-17T00:36:29.891Z,69.81
2018-01-17T00:39:02.889Z,69.73
2018-01-17T00:41:35.499Z,69.89
2018-01-17T00:44:05.858Z,69.45
2018-01-17T00:46:37.372Z,69.60
2018-01-17T00:49:08.414Z,70.09
2018-01-17T00:51:38.703Z,70.31
2018-01-17T00:54:15.645Z,69.80
2018-01-17T00:56:46.148Z,69.37
2018-01-17T00:59:16.626Z,69.23
2018-01-17T01:01:50.875Z,69.00
2018-01-17T01:04:22.986Z,68.79
2018-01-17T01:06:53.628Z,68.31
2018-01-17T01:09:24.126Z,68.29
2018-01-17T01:11:55.898Z,68.02
2018-01-17T01:14:26.382Z,68.07
2018-01-17T01:16:57.314Z,67.80
2018-01-17T01:19:27.760Z,67.84
2018-01-17T01:21:58.363Z,67.93
2018-01-17T01:24:28.988Z,68.03
2018-01-17T01:26:59.807Z,67.77
2018-01-17T01:29:30.100Z,67.62
2018-01-17T01:32:15.664Z,67.65
2018-01-17T01:34:46.142Z,67.66
2018-01-17T01:37:16.495Z,68.06
2018-01-17T01:39:46.961Z,68.29
2018-01-17T01:42:17.854Z,68.38
2018-01-17T01:44:48.184Z,68.38
2018-01-17T01:47:19.984Z,68.83
2018-01-17T01:49:50.723Z,68.62
2018-01-17T01:52:23.014Z,68.43
2018-01-17T01:54:53.717Z,68.64
2018-01-17T01:57:25.024Z,68.41
2018-01-17T01:59:56.155Z,68.58
2018-01-17T02:02:26.505Z,68.50
2018-01-17T02:04:58.126Z,68.28
2018-01-17T02:07:28.813Z,68.30
2018-01-17T02:09:59.036Z,68.34
2018-01-17T02:12:29.651Z,68.61
2018-01-17T02:15:00.838Z,68.45
2018-01-17T02:17:38.546Z,68.21
2018-01-17T02:20:09.734Z,68.27
2018-01-17T02:22:41.950Z,67.97
2018-01-17T02:25:13.724Z,68.96
2018-01-17T02:27:46.898Z,69.34
2018-01-17T02:30:17.439Z,68.16
2018-01-17T02:32:47.825Z,68.33
2018-01-17T02:35:18.165Z,67.88
2018-01-17T02:37:48.437Z,68.23
2018-01-17T02:40:51.889Z,68.70
2018-01-17T02:43:22.184Z,71.31
2018-01-17T02:45:53.014Z,71.51
2018-01-17T02:48:23.763Z,71.24
2018-01-17T02:50:59.500Z,71.11
2018-01-17T02:53:29.824Z,70.96
2018-01-17T02:56:00.856Z,70.62
2018-01-17T02:58:32.108Z,70.84
2018-01-17T03:01:02.821Z,70.67
2018-01-17T03:03:33.465Z,71.40
2018-01-17T03:06:04.041Z,71.71
2018-01-17T03:08:36.313Z,71.85
2018-01-17T03:11:08.025Z,72.22
2018-01-17T03:13:38.575Z,72.59
2018-01-17T03:16:10.787Z,72.59
2018-01-17T03:18:41.480Z,72.74
2018-01-17T03:21:12.784Z,72.48
2018-01-17T03:23:43.482Z,72.33
2018-01-17T03:26:13.794Z,72.33
2018-01-17T03:28:44.450Z,72.74
2018-01-17T03:31:15.147Z,72.72
2018-01-17T03:33:45.633Z,73.26
2018-01-17T03:36:16.388Z,74.38
2018-01-17T03:38:46.951Z,75.21
2018-01-17T03:41:17.267Z,75.27
2018-01-17T03:43:50.077Z,75.98
2018-01-17T03:46:20.493Z,75.48
2018-01-17T03:48:50.842Z,74.96
2018-01-17T03:51:21.321Z,74.38
2018-01-17T03:53:51.796Z,73.97
2018-01-17T03:56:22.572Z,73.44
2018-01-17T03:58:52.846Z,73.33
2018-01-17T04:01:23.563Z,73.18
2018-01-17T04:03:54.066Z,72.82
2018-01-17T04:06:24.261Z,72.77
2018-01-17T04:08:55.100Z,72.67
2018-01-17T04:11:25.704Z,72.67
2018-01-17T04:13:56.382Z,72.65
2018-01-17T04:16:27.899Z,72.71
2018-01-17T04:18:58.628Z,73.18
2018-01-17T04:21:29.847Z,72.83
2018-01-17T04:24:00.333Z,72.82
2018-01-17T04:26:31.232Z,72.70
2018-01-17T04:29:01.996Z,72.07
2018-01-17T04:31:32.395Z,71.82
2018-01-17T04:34:03.186Z,71.41
2018-01-17T04:36:39.411Z,71.15
2018-01-17T04:39:09.830Z,71.32
2018-01-17T04:41:41.942Z,71.40
2018-01-17T04:44:12.681Z,71.59
2018-01-17T04:46:45.437Z,72.69
2018-01-17T04:49:17.434Z,73.63
2018-01-17T04:51:47.917Z,73.59
2018-01-17T04:54:19.418Z,74.47
2018-01-17T04:56:51.637Z,75.24
2018-01-17T04:59:22.164Z,75.37
2018-01-17T05:01:52.924Z,75.98
2018-01-17T05:04:24.857Z,75.59
2018-01-17T05:06:55.485Z,75.45
2018-01-17T05:09:26.338Z,75.55
2018-01-17T05:11:56.808Z,75.33
2018-01-17T05:14:27.224Z,75.64
2018-01-17T05:16:58.764Z,75.35
2018-01-17T05:19:29.020Z,74.60
2018-01-17T05:22:01.061Z,74.39
2018-01-17T05:24:32.255Z,74.51
2018-01-17T05:27:03.147Z,74.77
2018-01-17T05:29:35.788Z,74.62
2018-01-17T05:32:09.244Z,74.88
2018-01-17T05:34:41.846Z,74.92
2018-01-17T05:37:14.192Z,75.34
2018-01-17T05:39:44.598Z,75.00
2018-01-17T05:42:16.360Z,75.18
2018-01-17T05:44:47.487Z,75.16
2018-01-17T05:47:18.036Z,74.97
2018-01-17T05:49:50.931Z,74.30
2018-01-17T05:52:21.274Z,73.93
2018-01-17T05:54:51.791Z,73.38
2018-01-17T05:57:22.720Z,72.65
2018-01-17T05:59:53.568Z,72.06
2018-01-17T06:02:24.734Z,71.59
2018-01-17T06:04:55.290Z,71.19
2018-01-17T06:07:27.376Z,70.80
2018-01-17T06:09:58.864Z,70.48
2018-01-17T06:12:29.937Z,69.80
2018-01-17T06:15:07.196Z,69.04
2018-01-17T06:17:38.219Z,69.25
2018-01-17T06:20:09.641Z,68.73
2018-01-17T06:22:40.681Z,68.52
2018-01-17T06:25:11.599Z,68.64
2018-01-17T06:27:42.054Z,68.82
2018-01-17T06:30:17.560Z,69.17
2018-01-17T06:32:49.391Z,69.54
2018-01-17T06:35:20.633Z,69.82
2018-01-17T06:37:54.175Z,69.83
2018-01-17T06:40:24.687Z,70.30
2018-01-17T06:42:55.032Z,70.73
2018-01-17T06:45:25.875Z,71.00
2018-01-17T06:47:56.957Z,71.03
2018-01-17T06:50:29.330Z,71.38
2018-01-17T06:53:01.117Z,71.32
2018-01-17T06:56:06.403Z,71.07
2018-01-17T06:58:38.943Z,71.54
2018-01-17T07:01:10.168Z,71.54
2018-01-17T07:03:40.555Z,71.70
2018-01-17T07:06:11.452Z,71.79
2018-01-17T07:08:44.405Z,71.56
2018-01-17T07:13:55.336Z,71.95
2018-01-17T07:16:28.398Z,71.92
2018-01-17T07:19:00.532Z,71.53
2018-01-17T07:21:31.137Z,71.64
2018-01-17T07:24:02.296Z,71.55
2018-01-17T07:26:32.739Z,71.59
2018-01-17T07:29:03.604Z,72.18
2018-01-17T07:34:07.129Z,72.19
2018-01-17T07:36:39.711Z,71.73
2018-01-17T07:39:10.838Z,71.91
2018-01-17T07:41:48.660Z,71.92
2018-01-17T07:44:22.272Z,72.21
2018-01-17T07:46:53.736Z,72.16
2018-01-17T07:49:25.724Z,72.16
2018-01-17T07:51:56.063Z,72.24
2018-01-17T07:54:27.808Z,72.39
2018-01-17T07:56:59.019Z,73.07
2018-01-17T07:59:33.763Z,72.79
2018-01-17T08:02:04.856Z,72.34
2018-01-17T08:04:36.204Z,71.93
2018-01-17T08:07:06.563Z,72.25
2018-01-17T08:09:38.403Z,72.94
2018-01-17T08:12:09.239Z,72.79
2018-01-17T08:14:40.737Z,72.47
2018-01-17T08:17:12.475Z,72.05
2018-01-17T08:19:43.142Z,71.85
2018-01-17T08:22:15.142Z,71.49
2018-01-17T08:24:46.408Z,72.15
2018-01-17T08:27:17.064Z,72.00
2018-01-17T08:29:47.907Z,71.39
2018-01-17T08:32:20.677Z,71.73
2018-01-17T08:34:51.569Z,71.82
2018-01-17T08:37:38.846Z,71.92
2018-01-17T08:40:09.879Z,71.20
2018-01-17T08:42:40.634Z,70.58
2018-01-17T08:45:15.580Z,70.93
2018-01-17T08:47:45.968Z,70.75
2018-01-17T08:50:17.547Z,70.89
2018-01-17T08:52:49.149Z,70.56
2018-01-17T08:55:21.073Z,70.11
2018-01-17T08:57:55.360Z,70.25
2018-01-17T09:00:28.659Z,70.43
2018-01-17T09:02:59.184Z,70.61
2018-01-17T09:05:31.097Z,69.94
2018-01-17T09:08:03.296Z,69.61
2018-01-17T09:10:40.629Z,69.29
2018-01-17T09:13:12.104Z,69.68
2018-01-17T09:15:42.562Z,69.89
2018-01-17T09:18:13.911Z,69.83
2018-01-17T09:20:45.195Z,69.61
2018-01-17T09:23:16.797Z,69.11
2018-01-17T09:25:48.339Z,69.67
2018-01-17T09:28:18.680Z,69.67
2018-01-17T09:30:56.589Z,68.80
2018-01-17T09:33:27.788Z,68.92
2018-01-17T09:36:01.541Z,69.31
2018-01-17T09:38:31.836Z,69.04
2018-01-17T09:41:02.351Z,69.12
2018-01-17T09:43:34.479Z,69.08
2018-01-17T09:46:05.458Z,69.21
2018-01-17T09:48:36.276Z,69.42
2018-01-17T09:51:07.567Z,69.80
2018-01-17T09:53:38.041Z,69.79
2018-01-17T09:56:08.884Z,71.16
2018-01-17T09:58:39.985Z,69.03
2018-01-17T10:01:10.534Z,68.83
2018-01-17T10:03:40.866Z,69.43
2018-01-17T10:06:11.686Z,69.08
2018-01-17T10:08:42.334Z,70.45
2018-01-17T10:11:12.709Z,70.40
2018-01-17T10:13:43.107Z,70.25
2018-01-17T10:16:13.993Z,70.58
2018-01-17T10:18:44.794Z,70.38
2018-01-17T10:21:16.689Z,70.57
2018-01-17T10:23:48.147Z,69.67
2018-01-17T10:26:18.970Z,69.97
2018-01-17T10:28:49.292Z,69.69
2018-01-17T10:31:21.221Z,69.73
2018-01-17T10:33:51.915Z,69.63
2018-01-17T10:36:23.233Z,69.74
2018-01-17T10:38:53.686Z,70.49
2018-01-17T10:41:25.176Z,70.52
2018-01-17T10:43:55.657Z,70.79
2018-01-17T10:46:26.782Z,70.89
2018-01-17T10:48:58.152Z,70.56
2018-01-17T10:51:44.119Z,70.11
2018-01-17T10:54:15.047Z,69.96
2018-01-17T10:56:47.576Z,70.02
2018-01-17T10:59:18.215Z,70.51
2018-01-17T11:01:49.239Z,70.56
2018-01-17T11:04:24.861Z,70.68
2018-01-17T11:06:59.872Z,70.95
2018-01-17T11:09:33.529Z,71.54
2018-01-17T11:12:04.029Z,71.23
2018-01-17T11:14:37.494Z,70.63
2018-01-17T11:17:11.541Z,70.62
2018-01-17T11:19:49.324Z,70.45
2018-01-17T11:22:21.019Z,70.38
2018-01-17T11:25:04.369Z,69.88
2018-01-17T11:27:35.183Z,69.93
2018-01-17T11:30:08.122Z,70.55
2018-01-17T11:32:39.158Z,70.52
2018-01-17T11:35:09.865Z,70.93
2018-01-17T11:37:41.137Z,70.64
2018-01-17T11:40:11.432Z,71.12
2018-01-17T11:42:43.188Z,70.55
2018-01-17T11:45:17.191Z,70.33
2018-01-17T11:47:49.312Z,70.75
2018-01-17T11:50:24.581Z,71.68
2018-01-17T11:52:55.392Z,72.11
2018-01-17T11:55:25.764Z,72.73
2018-01-17T11:57:56.056Z,73.34
2018-01-17T12:00:31.374Z,73.46
2018-01-17T12:03:02.759Z,73.93
2018-01-17T12:05:33.793Z,74.53
2018-01-17T12:08:06.700Z,74.20
2018-01-17T12:10:37.497Z,73.25
2018-01-17T12:13:08.968Z,72.97
2018-01-17T12:15:40.393Z,72.32
2018-01-17T12:18:14.199Z,71.79
2018-01-17T12:20:47.161Z,71.90
2018-01-17T12:23:18.429Z,71.83
2018-01-17T12:25:49.169Z,71.18
2018-01-17T12:28:24.272Z,70.65
2018-01-17T12:30:54.835Z,70.36
2018-01-17T12:33:26.438Z,70.26
2018-01-17T12:35:58.160Z,70.77
2018-01-17T12:38:29.195Z,70.02
2018-01-17T12:41:00.088Z,69.70
2018-01-17T12:43:30.440Z,69.48
2018-01-17T12:46:01.273Z,69.50
2018-01-17T12:48:32.298Z,69.43
2018-01-17T12:51:02.695Z,67.43
2018-01-17T12:53:33.018Z,67.26
2018-01-17T12:56:04.073Z,67.98
2018-01-17T12:58:34.556Z,67.60
2018-01-17T13:01:05.692Z,67.48
2018-01-17T13:03:37.967Z,66.99
2018-01-17T13:06:14.854Z,66.40
2018-01-17T13:08:50.953Z,66.33
2018-01-17T13:11:22.216Z,66.31
2018-01-17T13:13:52.516Z,66.10
2018-01-17T13:16:23.388Z,66.20
2018-01-17T13:18:54.022Z,66.91
2018-01-17T13:21:24.457Z,66.88
2018-01-17T13:23:57.302Z,67.18
2018-01-17T13:26:28.081Z,67.18
2018-01-17T13:28:59.739Z,67.69
2018-01-17T13:31:31.106Z,67.93
2018-01-17T13:34:01.549Z,68.49
2018-01-17T13:36:33.342Z,68.54
2018-01-17T13:39:08.383Z,68.56
2018-01-17T13:41:39.370Z,68.56
2018-01-17T13:44:23.979Z,69.26
2018-01-17T13:46:56.701Z,69.60
2018-01-17T13:49:27.803Z,71.05
2018-01-17T13:51:58.746Z,71.49
2018-01-17T13:54:31.645Z,71.13
2018-01-17T13:57:02.775Z,71.66
2018-01-17T13:59:33.815Z,71.19
2018-01-17T14:02:04.390Z,71.37
2018-01-17T14:04:35.599Z,71.20
2018-01-17T14:07:06.733Z,71.33
2018-01-17T14:09:37.127Z,71.83
2018-01-17T14:12:07.703Z,71.97
2018-01-17T14:14:40.284Z,72.70
2018-01-17T14:17:12.584Z,72.51
2018-01-17T14:19:45.161Z,71.85
2018-01-17T14:22:18.098Z,72.17
2018-01-17T14:24:48.817Z,72.17
2018-01-17T14:27:20.545Z,72.10
2018-01-17T14:29:52.997Z,71.74
2018-01-17T14:32:23.602Z,71.49
2018-01-17T14:34:54.600Z,71.70
2018-01-17T14:37:24.782Z,71.70
2018-01-17T14:39:55.230Z,71.93
2018-01-17T14:42:26.125Z,72.13
2018-01-17T14:44:57.655Z,71.80
2018-01-17T14:47:42.339Z,70.66
2018-01-17T14:50:14.110Z,71.14
2018-01-17T14:52:44.480Z,70.89
2018-01-17T14:55:16.279Z,70.44
2018-01-17T14:57:46.957Z,70.44
2018-01-17T15:00:26.736Z,70.58
2018-01-17T15:02:57.685Z,71.19
2018-01-17T15:05:29.382Z,70.70
2018-01-17T15:10:46.365Z,69.96
2018-01-17T15:13:20.205Z,69.89
2018-01-17T15:15:54.897Z,69.68
2018-01-17T15:18:32.339Z,70.14
2018-01-17T15:21:04.240Z,70.67
2018-01-17T15:23:35.957Z,70.81
2018-01-17T15:26:06.813Z,70.37
2018-01-17T15:28:38.177Z,70.00
2018-01-17T15:31:10.029Z,69.95
2018-01-17T15:33:43.265Z,70.12
2018-01-17T15:36:16.303Z,69.82
2018-01-17T15:38:47.494Z,69.69
2018-01-17T15:41:20.524Z,69.28
2018-01-17T15:43:52.781Z,68.96
2018-01-17T15:46:24.413Z,68.62
2018-01-17T15:48:55.731Z,67.82
2018-01-17T15:51:27.356Z,67.19
2018-01-17T15:53:58.915Z,67.40
2018-01-17T15:56:29.972Z,67.19
2018-01-17T15:59:01.664Z,66.90
2018-01-17T16:01:33.775Z,67.29
2018-01-17T16:04:08.466Z,66.10
2018-01-17T16:06:40.303Z,66.04
2018-01-17T16:09:10.893Z,66.15
2018-01-17T16:11:42.440Z,65.89
2018-01-17T16:14:13.177Z,65.92
2018-01-17T16:16:44.964Z,65.74
2018-01-17T16:19:16.593Z,65.84
2018-01-17T16:21:51.270Z,65.51
2018-01-17T16:24:27.686Z,65.50
2018-01-17T16:27:00.025Z,65.70
2018-01-17T16:29:31.302Z,65.62
2018-01-17T16:32:02.982Z,65.74
2018-01-17T16:34:36.663Z,65.70
2018-01-17T16:37:07.346Z,65.46
2018-01-17T16:39:42.406Z,65.08
2018-01-17T16:42:14.366Z,64.78
2018-01-17T16:44:56.414Z,64.51
2018-01-17T16:47:27.614Z,64.68
2018-01-17T16:49:59.396Z,64.99
2018-01-17T16:52:31.514Z,64.60
2018-01-17T16:55:02.675Z,64.80
2018-01-17T16:57:33.045Z,64.11
2018-01-17T17:00:07.721Z,64.29
2018-01-17T17:02:40.157Z,64.20
2018-01-17T17:05:11.932Z,64.19
2018-01-17T17:07:42.853Z,64.09
2018-01-17T17:10:14.551Z,64.10
2018-01-17T17:12:47.280Z,64.14
2018-01-17T17:15:25.018Z,63.57
2018-01-17T17:17:56.020Z,63.64
2018-01-17T17:20:27.518Z,63.87
2018-01-17T17:22:57.985Z,63.39
2018-01-17T17:27:57.422Z,62.94
2018-01-17T17:30:31.162Z,63.10
2018-01-17T17:33:03.023Z,62.91
2018-01-17T17:35:40.684Z,62.79
2018-01-17T17:38:18.559Z,62.35
2018-01-17T17:40:50.745Z,61.91
2018-01-17T17:43:22.588Z,62.09
2018-01-17T17:45:54.567Z,61.65
2018-01-17T17:48:26.501Z,61.55
2018-01-17T17:51:01.776Z,61.42
2018-01-17T17:53:33.604Z,61.38
2018-01-17T17:56:06.140Z,60.86
2018-01-17T17:58:43.701Z,61.00
2018-01-17T18:01:19.813Z,61.29
2018-01-17T18:03:51.481Z,60.65
2018-01-17T18:06:25.007Z,61.29
2018-01-17T18:08:55.949Z,60.93
2018-01-17T18:11:26.645Z,61.03
2018-01-17T18:14:00.509Z,61.10
2018-01-17T18:16:32.591Z,61.26
2018-01-17T18:19:05.369Z,60.99
2018-01-17T18:21:39.757Z,61.68
2018-01-17T18:24:15.824Z,61.93
2018-01-17T18:26:46.702Z,62.13
2018-01-17T18:29:18.119Z,62.08
2018-01-17T18:31:49.314Z,62.33
2018-01-17T18:34:19.728Z,62.78
2018-01-17T18:36:52.309Z,62.90
2018-01-17T18:39:23.086Z,62.82
2018-01-17T18:41:56.428Z,63.02
2018-01-17T18:44:28.685Z,63.68
2018-01-17T18:47:00.031Z,63.46
2018-01-17T18:49:30.371Z,63.48
2018-01-17T18:52:01.051Z,63.36
2018-01-17T18:54:32.537Z,63.22
2018-01-17T18:57:03.731Z,63.21
2018-01-17T18:59:34.610Z,63.20
2018-01-17T19:02:07.647Z,63.05
2018-01-17T19:04:39.950Z,62.99
2018-01-17T19:07:11.087Z,62.88
2018-01-17T19:09:41.438Z,62.52
2018-01-17T19:12:12.572Z,62.74
2018-01-17T19:14:43.227Z,62.72
2018-01-17T19:17:13.888Z,62.47
2018-01-17T19:19:44.838Z,62.35
2018-01-17T19:22:16.337Z,62.65
2018-01-17T19:27:53.134Z,61.96
2018-01-17T19:30:23.890Z,61.87
2018-01-17T19:32:54.334Z,61.68
2018-01-17T19:35:28.130Z,61.87
2018-01-17T19:37:58.481Z,61.55
2018-01-17T19:40:32.411Z,61.70
2018-01-17T19:43:02.876Z,61.81
2018-01-17T19:45:34.007Z,61.75
2018-01-17T19:48:04.891Z,61.75
2018-01-17T19:50:36.298Z,61.46
2018-01-17T19:53:07.230Z,61.63
2018-01-17T19:55:37.782Z,61.35
2018-01-17T19:58:08.316Z,61.47
2018-01-17T20:00:45.124Z,61.29
2018-01-17T20:03:26.254Z,61.61
2018-01-17T20:05:57.067Z,61.41
2018-01-17T20:08:29.020Z,61.49
2018-01-17T20:11:00.235Z,61.81
2018-01-17T20:13:30.889Z,61.81
2018-01-17T20:16:02.401Z,61.87
2018-01-17T20:18:32.958Z,61.79
2018-01-17T20:21:04.553Z,61.77
2018-01-17T20:23:38.691Z,61.73
2018-01-17T20:26:09.718Z,61.51
2018-01-17T20:28:42.081Z,61.79
2018-01-17T20:31:14.839Z,61.83
2018-01-17T20:33:50.213Z,61.96
2018-01-17T20:36:21.299Z,61.91
2018-01-17T20:38:51.888Z,61.80
2018-01-17T20:41:23.844Z,62.03
2018-01-17T20:44:19.888Z,61.81
2018-01-17T20:46:50.849Z,61.93
2018-01-17T20:49:22.003Z,61.88
2018-01-17T20:51:53.237Z,61.90
2018-01-17T20:54:24.662Z,62.13
2018-01-17T20:56:59.002Z,61.96
2018-01-17T20:59:38.406Z,61.84
2018-01-17T21:02:10.246Z,61.60
2018-01-17T21:04:41.087Z,61.56
2018-01-17T21:07:12.080Z,61.48
2018-01-17T21:09:44.563Z,61.47
2018-01-17T21:12:16.107Z,61.66
2018-01-17T21:14:50.247Z,61.73
2018-01-17T21:17:22.569Z,61.78
2018-01-17T21:19:53.332Z,62.15
2018-01-17T21:22:24.656Z,62.29
2018-01-17T21:24:56.291Z,62.31
2018-01-17T21:27:34.008Z,62.83
2018-01-17T21:30:07.373Z,62.85
2018-01-17T21:32:39.727Z,62.93
2018-01-17T21:35:10.744Z,63.02
2018-01-17T21:37:43.406Z,63.45
2018-01-17T21:40:14.316Z,63.55
2018-01-17T21:42:49.018Z,63.24
2018-01-17T21:45:53.441Z,63.25
2018-01-17T21:48:23.936Z,63.37
2018-01-17T21:50:54.898Z,63.19
2018-01-17T21:53:25.512Z,63.35
2018-01-17T21:55:56.046Z,62.99
2018-01-17T21:58:26.418Z,63.02
2018-01-17T22:00:59.621Z,63.08
2018-01-17T22:03:30.624Z,62.97
2018-01-17T22:06:01.075Z,62.90
2018-01-17T22:08:32.397Z,62.62
2018-01-17T22:11:04.438Z,62.96
2018-01-17T22:13:34.988Z,63.07
2018-01-17T22:16:06.258Z,63.01
2018-01-17T22:18:36.803Z,62.78
2018-01-17T22:21:08.264Z,62.76
2018-01-17T22:23:40.041Z,62.52
2018-01-17T22:26:10.481Z,62.56
2018-01-17T22:28:46.372Z,62.60
2018-01-17T22:31:17.135Z,62.66
2018-01-17T22:33:47.697Z,62.88
2018-01-17T22:36:17.984Z,62.79
2018-01-17T22:38:48.424Z,62.95
2018-01-17T22:41:20.701Z,62.89
2018-01-17T22:43:51.084Z,62.72
2018-01-17T22:46:21.642Z,62.85
2018-01-17T22:48:53.566Z,62.84
2018-01-17T22:51:24.019Z,62.84
2018-01-17T22:53:54.290Z,62.56
2018-01-17T22:56:24.858Z,62.51
2018-01-17T22:58:55.350Z,62.27
2018-01-17T23:01:26.606Z,62.35
2018-01-17T23:03:57.203Z,62.30
2018-01-17T23:06:27.675Z,62.38
2018-01-17T23:08:58.172Z,62.39
2018-01-17T23:11:29.987Z,62.23
2018-01-17T23:14:00.720Z,62.09
2018-01-17T23:16:31.680Z,61.97
2018-01-17T23:19:02.268Z,62.06
2018-01-17T23:21:33.140Z,62.10
2018-01-17T23:24:03.803Z,62.20
2018-01-17T23:26:34.304Z,62.09
2018-01-17T23:29:05.072Z,62.27
2018-01-17T23:31:35.708Z,62.50
2018-01-17T23:34:06.022Z,62.21
2018-01-17T23:36:36.270Z,62.24
2018-01-17T23:39:07.115Z,62.35
2018-01-17T23:41:48.800Z,62.31
2018-01-17T23:44:19.244Z,62.22
2018-01-17T23:46:50.384Z,62.14
2018-01-17T23:49:20.843Z,62.12
2018-01-17T23:51:51.312Z,62.27
2018-01-17T23:54:22.828Z,62.13
2018-01-17T23:56:53.626Z,62.25
2018-01-17T23:59:24.063Z,62.37
